createdAt,value
2018-11-26T00:00:36.611Z,4.44
2018-11-26T00:03:44.720Z,4.41
2018-11-26T00:06:52.667Z,4.34
2018-11-26T00:09:23.690Z,4.52
2018-11-26T00:12:12.188Z,4.40
2018-11-26T00:14:41.039Z,4.38
2018-11-26T00:17:09.887Z,4.32
2018-11-26T00:19:38.733Z,4.35
2018-11-26T00:22:07.561Z,4.31
2018-11-26T00:24:36.244Z,4.31
2018-11-26T00:27:05.528Z,4.36
2018-11-26T00:29:55.334Z,4.30
2018-11-26T00:32:23.964Z,4.28
2018-11-26T00:34:52.831Z,4.18
2018-11-26T00:37:21.617Z,4.19
2018-11-26T00:39:50.513Z,4.14
2018-11-26T00:42:19.357Z,4.18
2018-11-26T00:44:48.555Z,4.17
2018-11-26T00:47:36.915Z,4.24
2018-11-26T00:50:26.128Z,4.17
2018-11-26T00:52:56.258Z,4.17
2018-11-26T00:55:24.986Z,4.15
2018-11-26T00:57:53.822Z,4.19
2018-11-26T01:00:42.306Z,4.19
2018-11-26T01:03:11.006Z,4.15
2018-11-26T01:05:40.766Z,4.07
2018-11-26T01:08:09.612Z,4.19
2018-11-26T01:10:58.253Z,4.17
2018-11-26T01:16:37.825Z,4.26
2018-11-26T01:19:07.382Z,4.09
2018-11-26T01:21:36.116Z,4.14
2018-11-26T01:24:04.943Z,4.21
2018-11-26T01:26:33.697Z,4.15
2018-11-26T01:29:02.438Z,4.15
2018-11-26T01:31:31.892Z,4.13
2018-11-26T01:34:02.284Z,4.13
2018-11-26T01:36:31.141Z,4.20
2018-11-26T01:38:59.983Z,4.24
2018-11-26T01:41:28.709Z,4.31
2018-11-26T01:43:57.518Z,4.25
2018-11-26T01:46:26.267Z,4.26
2018-11-26T01:48:55.187Z,4.23
2018-11-26T01:51:23.915Z,4.21
2018-11-26T01:57:00.180Z,4.23
2018-11-26T01:59:49.301Z,4.21
2018-11-26T02:05:46.976Z,4.24
2018-11-26T02:08:15.604Z,4.17
2018-11-26T02:10:44.273Z,4.19
2018-11-26T02:13:13.156Z,4.18
2018-11-26T02:15:42.681Z,4.14
2018-11-26T02:18:11.746Z,4.13
2018-11-26T02:20:40.434Z,4.11
2018-11-26T02:23:10.153Z,4.18
2018-11-26T02:25:38.934Z,4.28
2018-11-26T02:28:08.902Z,4.19
2018-11-26T02:30:59.085Z,4.15
2018-11-26T02:33:27.705Z,4.16
2018-11-26T02:35:56.368Z,4.15
2018-11-26T02:38:25.098Z,4.04
2018-11-26T02:40:53.765Z,4.07
2018-11-26T02:43:22.398Z,4.18
2018-11-26T02:45:51.092Z,4.26
2018-11-26T02:48:38.726Z,4.32
2018-11-26T02:51:07.606Z,4.33
2018-11-26T02:53:55.292Z,4.34
2018-11-26T02:56:44.915Z,4.24
2018-11-26T02:59:14.586Z,4.32
2018-11-26T03:01:43.199Z,4.34
2018-11-26T03:04:15.428Z,4.34
2018-11-26T03:06:44.509Z,4.25
2018-11-26T03:09:13.495Z,4.19
2018-11-26T03:17:04.736Z,4.31
2018-11-26T03:19:33.391Z,4.38
2018-11-26T03:22:02.250Z,4.28
2018-11-26T03:24:31.158Z,4.24
2018-11-26T03:33:04.294Z,4.26
2018-11-26T03:35:32.819Z,4.33
2018-11-26T03:38:40.941Z,4.32
2018-11-26T03:41:29.028Z,4.35
2018-11-26T03:43:57.658Z,4.31
2018-11-26T03:46:26.325Z,4.27
2018-11-26T03:48:54.994Z,4.17
2018-11-26T03:51:23.644Z,4.32
2018-11-26T03:56:39.972Z,4.32
2018-11-26T03:59:30.338Z,4.34
2018-11-26T04:02:01.175Z,4.33
2018-11-26T04:04:31.055Z,4.35
2018-11-26T04:06:59.898Z,4.36
2018-11-26T04:09:28.638Z,4.33
2018-11-26T04:11:57.573Z,4.35
2018-11-26T04:14:26.665Z,4.30
2018-11-26T04:17:14.380Z,4.31
2018-11-26T04:19:43.088Z,4.36
2018-11-26T04:22:13.516Z,4.34
2018-11-26T04:25:01.848Z,4.27
2018-11-26T04:27:30.646Z,4.41
2018-11-26T04:29:59.540Z,4.29
2018-11-26T04:32:28.393Z,4.33
2018-11-26T04:34:57.311Z,4.28
2018-11-26T04:37:26.056Z,4.29
2018-11-26T04:39:55.023Z,4.26
2018-11-26T04:42:23.735Z,4.34
2018-11-26T04:44:54.460Z,4.39
2018-11-26T04:47:43.681Z,4.21
2018-11-26T04:50:13.110Z,4.28
2018-11-26T04:52:41.732Z,4.18
2018-11-26T04:55:11.492Z,4.18
2018-11-26T04:57:42.608Z,4.16
2018-11-26T05:00:11.900Z,4.11
2018-11-26T05:05:16.679Z,4.20
2018-11-26T05:07:45.508Z,4.23
2018-11-26T05:10:14.862Z,4.21
2018-11-26T05:15:50.817Z,4.21
2018-11-26T05:18:39.327Z,4.04
2018-11-26T05:21:28.143Z,4.01
2018-11-26T05:24:00.043Z,4.13
2018-11-26T05:29:18.634Z,4.06
2018-11-26T05:34:35.717Z,4.05
2018-11-26T05:37:04.585Z,4.09
2018-11-26T05:39:33.372Z,4.05
2018-11-26T05:42:02.201Z,4.04
2018-11-26T05:44:31.017Z,4.09
2018-11-26T05:46:59.840Z,4.10
2018-11-26T05:49:29.371Z,4.11
2018-11-26T05:51:58.035Z,4.03
2018-11-26T05:54:26.888Z,3.98
2018-11-26T05:57:17.045Z,3.97
2018-11-26T06:00:05.852Z,4.01
2018-11-26T06:02:34.873Z,4.09
2018-11-26T06:05:03.714Z,4.08
2018-11-26T06:07:32.444Z,4.07
2018-11-26T06:10:20.381Z,3.97
2018-11-26T06:12:49.017Z,3.99
2018-11-26T06:17:51.970Z,4.01
2018-11-26T06:20:20.768Z,4.04
2018-11-26T06:22:49.505Z,3.96
2018-11-26T06:25:19.662Z,3.97
2018-11-26T06:27:48.436Z,4.01
2018-11-26T06:30:20.368Z,4.04
2018-11-26T06:35:43.620Z,3.96
2018-11-26T06:38:12.308Z,4.04
2018-11-26T06:40:41.068Z,4.00
2018-11-26T06:43:29.270Z,4.10
2018-11-26T06:46:17.965Z,4.03
2018-11-26T06:48:46.594Z,4.12
2018-11-26T06:51:15.278Z,4.16
2018-11-26T06:53:43.985Z,4.11
2018-11-26T06:56:12.909Z,4.01
2018-11-26T06:58:41.794Z,3.99
2018-11-26T07:01:10.502Z,3.92
2018-11-26T07:03:39.237Z,3.95
2018-11-26T07:06:08.159Z,3.94
2018-11-26T07:08:37.066Z,4.05
2018-11-26T07:11:09.106Z,4.01
2018-11-26T07:13:58.387Z,4.17
2018-11-26T07:16:27.178Z,4.04
2018-11-26T07:18:56.134Z,4.02
2018-11-26T07:21:24.748Z,3.94
2018-11-26T07:23:55.113Z,3.90
2018-11-26T07:26:27.784Z,3.96
2018-11-26T07:29:16.060Z,3.97
2018-11-26T07:31:44.987Z,3.89
2018-11-26T07:37:23.490Z,3.99
2018-11-26T07:39:53.098Z,4.01
2018-11-26T07:42:22.349Z,3.94
2018-11-26T07:44:50.984Z,4.09
2018-11-26T07:47:19.775Z,3.93
2018-11-26T07:50:29.254Z,4.11
2018-11-26T07:52:58.320Z,4.13
2018-11-26T07:55:27.238Z,4.09
2018-11-26T07:57:56.090Z,4.05
2018-11-26T08:00:24.771Z,4.10
2018-11-26T08:02:53.600Z,4.02
2018-11-26T08:08:54.179Z,4.05
2018-11-26T08:11:22.864Z,4.07
2018-11-26T08:13:51.589Z,4.14
2018-11-26T08:16:20.426Z,4.08
2018-11-26T08:18:49.304Z,4.05
2018-11-26T08:21:18.570Z,4.15
2018-11-26T08:23:48.979Z,4.19
2018-11-26T08:26:57.701Z,4.20
2018-11-26T08:29:46.794Z,4.23
2018-11-26T08:32:16.528Z,4.26
2018-11-26T08:34:45.483Z,4.29
2018-11-26T08:40:43.708Z,4.12
2018-11-26T08:43:51.987Z,4.20
2018-11-26T08:46:41.283Z,4.17
2018-11-26T08:49:28.893Z,4.24
2018-11-26T08:51:57.723Z,4.17
2018-11-26T08:54:26.624Z,4.24
2018-11-26T08:56:55.365Z,4.30
2018-11-26T08:59:24.307Z,4.21
2018-11-26T09:02:11.971Z,4.23
2018-11-26T09:04:59.633Z,4.27
2018-11-26T09:07:28.813Z,4.27
2018-11-26T09:10:18.321Z,4.32
2018-11-26T09:13:25.712Z,4.40
2018-11-26T09:18:29.725Z,4.36
2018-11-26T09:20:58.531Z,4.46
2018-11-26T09:23:27.420Z,4.42
2018-11-26T09:25:56.317Z,4.45
2018-11-26T09:28:27.256Z,4.49
2018-11-26T09:31:36.296Z,4.48
2018-11-26T09:34:25.340Z,4.49
2018-11-26T09:37:13.329Z,4.54
2018-11-26T09:39:42.089Z,4.59
2018-11-26T09:42:10.814Z,4.57
2018-11-26T09:45:18.894Z,4.53
2018-11-26T09:47:47.593Z,4.55
2018-11-26T09:50:21.250Z,4.68
2018-11-26T09:52:50.042Z,4.66
2018-11-26T09:55:19.072Z,4.72
2018-11-26T09:58:07.295Z,4.76
2018-11-26T10:00:36.419Z,4.85
2018-11-26T10:03:43.876Z,4.87
2018-11-26T10:06:12.612Z,4.80
2018-11-26T10:11:49.012Z,4.80
2018-11-26T10:14:37.401Z,4.79
2018-11-26T10:17:26.701Z,4.94
2018-11-26T10:19:56.022Z,4.92
2018-11-26T10:22:24.702Z,4.87
2018-11-26T10:24:53.651Z,5.03
2018-11-26T10:32:47.380Z,5.10
2018-11-26T10:35:16.932Z,4.95
2018-11-26T10:37:45.687Z,4.89
2018-11-26T10:40:28.202Z,4.88
2018-11-26T10:46:05.071Z,4.92
2018-11-26T10:48:33.830Z,4.92
2018-11-26T10:51:03.193Z,4.95
2018-11-26T10:53:32.081Z,4.97
2018-11-26T10:56:01.276Z,5.03
2018-11-26T10:58:30.584Z,4.96
2018-11-26T11:03:55.834Z,4.94
2018-11-26T11:06:25.536Z,4.92
2018-11-26T11:08:54.440Z,4.93
2018-11-26T11:11:23.870Z,5.00
2018-11-26T11:13:52.321Z,5.01
2018-11-26T11:19:31.109Z,5.19
2018-11-26T11:21:59.805Z,5.18
2018-11-26T11:24:30.550Z,5.11
2018-11-26T11:27:18.519Z,5.15
2018-11-26T11:29:47.841Z,5.14
2018-11-26T11:32:16.709Z,5.19
2018-11-26T11:35:05.796Z,5.13
2018-11-26T11:37:34.663Z,5.15
2018-11-26T11:40:41.845Z,5.01
2018-11-26T11:46:05.103Z,5.03
2018-11-26T11:48:33.859Z,5.07
2018-11-26T11:51:03.128Z,5.10
2018-11-26T11:53:31.968Z,5.12
2018-11-26T11:56:21.529Z,5.11
2018-11-26T11:58:50.386Z,5.20
2018-11-26T12:01:38.979Z,5.18
2018-11-26T12:04:07.981Z,5.09
2018-11-26T12:06:56.246Z,5.23
2018-11-26T12:09:24.948Z,5.26
2018-11-26T12:11:54.954Z,5.24
2018-11-26T12:14:23.760Z,5.20
2018-11-26T12:16:53.132Z,5.27
2018-11-26T12:19:22.005Z,5.22
2018-11-26T12:21:50.941Z,5.15
2018-11-26T12:24:19.984Z,5.24
2018-11-26T12:26:50.882Z,5.28
2018-11-26T12:29:17.816Z,5.25
2018-11-26T12:32:06.043Z,5.24
2018-11-26T12:34:35.256Z,5.22
2018-11-26T12:37:04.030Z,5.29
2018-11-26T12:39:52.853Z,5.27
2018-11-26T12:42:21.794Z,5.23
2018-11-26T12:44:51.349Z,5.26
2018-11-26T12:47:20.276Z,5.29
2018-11-26T12:49:51.209Z,5.28
2018-11-26T12:52:40.169Z,5.19
2018-11-26T12:55:28.150Z,5.24
2018-11-26T12:58:16.367Z,5.18
2018-11-26T13:03:52.785Z,5.07
2018-11-26T13:06:21.207Z,5.11
2018-11-26T13:08:49.907Z,5.02
2018-11-26T13:11:18.561Z,5.06
2018-11-26T13:13:47.198Z,5.05
2018-11-26T13:16:35.181Z,5.04
2018-11-26T13:19:03.822Z,5.02
2018-11-26T13:21:32.763Z,4.88
2018-11-26T13:27:10.101Z,4.80
2018-11-26T13:29:38.850Z,4.83
2018-11-26T13:32:26.843Z,4.88
2018-11-26T13:34:55.676Z,4.87
2018-11-26T13:37:24.519Z,4.90
2018-11-26T13:39:53.285Z,4.87
2018-11-26T13:42:21.999Z,4.83
2018-11-26T13:44:50.773Z,4.80
2018-11-26T13:47:19.762Z,4.78
2018-11-26T13:49:48.602Z,4.76
2018-11-26T13:52:17.323Z,4.65
2018-11-26T13:54:46.129Z,4.76
2018-11-26T13:57:14.967Z,4.75
2018-11-26T13:59:43.857Z,4.71
2018-11-26T14:02:12.585Z,4.76
2018-11-26T14:04:41.487Z,4.74
2018-11-26T14:07:10.227Z,4.67
2018-11-26T14:09:39.159Z,4.70
2018-11-26T14:12:08.041Z,4.68
2018-11-26T14:14:36.967Z,4.77
2018-11-26T14:17:05.814Z,4.84
2018-11-26T14:19:34.728Z,4.69
2018-11-26T14:22:03.599Z,4.66
2018-11-26T14:24:32.469Z,4.66
2018-11-26T14:27:01.398Z,4.73
2018-11-26T14:29:30.189Z,4.83
2018-11-26T14:31:59.060Z,4.79
2018-11-26T14:34:27.917Z,4.73
2018-11-26T14:36:56.753Z,4.66
2018-11-26T14:39:25.539Z,4.73
2018-11-26T14:41:54.281Z,4.63
2018-11-26T14:44:23.127Z,4.58
2018-11-26T14:46:52.057Z,4.52
2018-11-26T14:49:20.985Z,4.50
2018-11-26T14:51:49.666Z,4.42
2018-11-26T14:54:18.337Z,4.30
2018-11-26T14:56:47.112Z,4.26
2018-11-26T14:59:16.032Z,4.25
2018-11-26T15:01:44.928Z,4.27
2018-11-26T15:04:13.854Z,4.28
2018-11-26T15:06:42.563Z,4.22
2018-11-26T15:09:11.496Z,4.15
2018-11-26T15:11:40.337Z,4.15
2018-11-26T15:14:09.174Z,3.97
2018-11-26T15:16:37.915Z,4.01
2018-11-26T15:19:06.754Z,3.98
2018-11-26T15:21:35.636Z,3.93
2018-11-26T15:24:04.534Z,3.94
2018-11-26T15:26:33.321Z,3.82
2018-11-26T15:29:02.064Z,3.72
2018-11-26T15:31:30.995Z,3.77
2018-11-26T15:33:59.746Z,3.80
2018-11-26T15:36:28.532Z,3.73
2018-11-26T15:38:57.454Z,3.73
2018-11-26T15:41:26.462Z,3.79
2018-11-26T15:43:55.102Z,3.64
2018-11-26T15:46:23.923Z,3.62
2018-11-26T15:48:52.669Z,3.50
2018-11-26T15:51:21.602Z,3.56
2018-11-26T15:53:50.245Z,3.42
2018-11-26T15:56:19.173Z,3.38
2018-11-26T15:58:47.972Z,3.26
2018-11-26T16:01:16.822Z,3.41
2018-11-26T16:03:45.528Z,3.42
2018-11-26T16:06:21.440Z,3.55
2018-11-26T16:08:50.115Z,3.51
2018-11-26T16:11:18.863Z,3.43
2018-11-26T16:13:47.486Z,3.40
2018-11-26T16:16:16.173Z,3.22
2018-11-26T16:18:44.894Z,3.19
2018-11-26T16:21:13.592Z,3.07
2018-11-26T16:23:42.263Z,3.13
2018-11-26T16:26:10.981Z,3.18
2018-11-26T16:28:39.615Z,3.23
2018-11-26T16:31:08.321Z,3.29
2018-11-26T16:33:36.998Z,3.30
2018-11-26T16:36:06.194Z,3.37
2018-11-26T16:38:34.925Z,3.41
2018-11-26T16:41:03.623Z,3.41
2018-11-26T16:43:32.410Z,3.35
2018-11-26T16:46:01.062Z,3.23
2018-11-26T16:48:29.741Z,3.28
2018-11-26T16:50:58.567Z,3.50
2018-11-26T16:53:27.219Z,3.36
2018-11-26T16:55:57.683Z,3.45
2018-11-26T16:58:27.592Z,3.47
2018-11-26T17:00:58.976Z,3.42
2018-11-26T17:03:27.780Z,3.34
2018-11-26T17:05:58.324Z,3.15
2018-11-26T17:08:26.955Z,3.09
2018-11-26T17:10:55.783Z,3.13
2018-11-26T17:13:24.737Z,3.24
2018-11-26T17:15:53.484Z,3.22
2018-11-26T17:18:22.347Z,3.14
2018-11-26T17:20:50.999Z,3.16
2018-11-26T17:23:19.640Z,3.43
2018-11-26T17:25:48.431Z,3.37
2018-11-26T17:28:17.064Z,3.34
2018-11-26T17:30:45.871Z,3.32
2018-11-26T17:33:14.606Z,3.33
2018-11-26T17:35:43.318Z,3.43
2018-11-26T17:38:11.998Z,3.30
2018-11-26T17:40:41.096Z,3.23
2018-11-26T17:43:14.144Z,3.35
2018-11-26T17:45:43.162Z,3.30
2018-11-26T17:48:31.192Z,3.30
2018-11-26T17:50:59.843Z,3.24
2018-11-26T17:53:28.492Z,3.40
2018-11-26T17:55:57.473Z,3.40
2018-11-26T17:58:27.500Z,3.30
2018-11-26T18:01:19.314Z,3.38
2018-11-26T18:03:47.977Z,3.35
2018-11-26T18:06:16.795Z,3.30
2018-11-26T18:08:45.569Z,3.31
2018-11-26T18:11:14.240Z,3.34
2018-11-26T18:13:43.245Z,3.33
2018-11-26T18:16:31.262Z,3.34
2018-11-26T18:19:00.859Z,3.30
2018-11-26T18:24:39.449Z,3.33
2018-11-26T18:27:09.768Z,3.41
2018-11-26T18:30:17.810Z,3.31
2018-11-26T18:36:18.801Z,3.37
2018-11-26T18:38:48.084Z,3.34
2018-11-26T18:41:57.276Z,3.34
2018-11-26T18:44:46.521Z,3.34
2018-11-26T18:47:55.949Z,3.42
2018-11-26T18:51:09.354Z,3.40
2018-11-26T18:53:57.552Z,3.27
2018-11-26T18:57:05.585Z,3.24
2018-11-26T19:00:17.507Z,3.21
2018-11-26T19:02:47.398Z,3.28
2018-11-26T19:05:16.939Z,3.29
2018-11-26T19:08:05.237Z,3.34
2018-11-26T19:14:09.571Z,3.35
2018-11-26T19:17:25.946Z,3.37
2018-11-26T19:19:54.944Z,3.37
2018-11-26T19:22:49.429Z,3.26
2018-11-26T19:25:58.886Z,3.27
2018-11-26T19:31:21.932Z,3.31
2018-11-26T19:34:10.030Z,3.31
2018-11-26T19:36:58.072Z,3.12
2018-11-26T19:39:54.237Z,3.25
2018-11-26T19:43:04.503Z,3.31
2018-11-26T19:45:33.294Z,3.25
2018-11-26T19:48:02.094Z,3.17
2018-11-26T19:50:31.095Z,3.08
2018-11-26T19:53:21.689Z,3.06
2018-11-26T19:56:09.516Z,3.06
2018-11-26T19:59:02.531Z,3.04
2018-11-26T20:02:11.626Z,3.30
2018-11-26T20:05:00.672Z,3.23
2018-11-26T20:07:29.318Z,3.09
2018-11-26T20:09:58.016Z,2.99
2018-11-26T20:12:26.727Z,2.98
2018-11-26T20:14:55.455Z,3.02
2018-11-26T20:17:24.121Z,3.19
2018-11-26T20:19:52.868Z,3.10
2018-11-26T20:22:21.567Z,3.17
2018-11-26T20:24:50.281Z,3.08
2018-11-26T20:27:18.924Z,3.13
2018-11-26T20:29:47.870Z,3.15
2018-11-26T20:32:16.570Z,3.10
2018-11-26T20:34:45.322Z,3.19
2018-11-26T20:37:13.960Z,3.13
2018-11-26T20:39:42.781Z,3.09
2018-11-26T20:42:11.454Z,3.05
2018-11-26T20:44:40.150Z,3.06
2018-11-26T20:47:08.809Z,3.15
2018-11-26T20:49:37.530Z,3.08
2018-11-26T20:52:06.316Z,3.04
2018-11-26T20:54:34.950Z,3.05
2018-11-26T20:57:03.655Z,3.00
2018-11-26T20:59:32.331Z,2.99
2018-11-26T21:02:08.350Z,3.10
2018-11-26T21:04:37.413Z,3.09
2018-11-26T21:07:08.374Z,3.15
2018-11-26T21:09:37.411Z,3.14
2018-11-26T21:12:07.283Z,3.12
2018-11-26T21:14:36.001Z,3.13
2018-11-26T21:17:23.987Z,3.08
2018-11-26T21:19:52.753Z,3.12
2018-11-26T21:22:21.541Z,3.21
2018-11-26T21:24:50.273Z,3.17
2018-11-26T21:27:19.121Z,3.26
2018-11-26T21:29:47.810Z,3.18
2018-11-26T21:32:16.631Z,3.07
2018-11-26T21:34:46.915Z,3.05
2018-11-26T21:37:35.699Z,3.01
2018-11-26T21:40:04.663Z,3.07
2018-11-26T21:42:33.481Z,3.10
2018-11-26T21:45:02.203Z,3.06
2018-11-26T21:47:30.960Z,3.05
2018-11-26T21:49:59.621Z,2.99
2018-11-26T21:52:29.819Z,2.97
2018-11-26T21:55:18.840Z,3.01
2018-11-26T21:57:49.306Z,3.02
2018-11-26T22:00:19.309Z,2.82
2018-11-26T22:02:48.102Z,2.72
2018-11-26T22:05:16.853Z,2.67
2018-11-26T22:07:45.583Z,2.75
2018-11-26T22:13:23.369Z,2.76
2018-11-26T22:15:52.190Z,2.63
2018-11-26T22:18:20.929Z,2.66
2018-11-26T22:20:49.692Z,2.68
2018-11-26T22:23:37.688Z,2.60
2018-11-26T22:26:06.552Z,2.68
2018-11-26T22:28:35.502Z,2.68
2018-11-26T22:31:04.991Z,2.68
2018-11-26T22:36:41.901Z,2.71
2018-11-26T22:42:20.463Z,2.69
2018-11-26T22:44:49.228Z,2.69
2018-11-26T22:47:18.248Z,2.69
2018-11-26T22:49:47.158Z,2.66
2018-11-26T22:52:16.053Z,2.65
2018-11-26T22:54:44.872Z,2.66
2018-11-26T22:59:48.748Z,2.66
2018-11-26T23:02:17.418Z,2.67
2018-11-26T23:04:46.346Z,2.71
2018-11-26T23:07:15.053Z,2.63
2018-11-26T23:12:19.958Z,2.57
2018-11-26T23:14:48.749Z,2.62
2018-11-26T23:17:17.602Z,2.59
2018-11-26T23:19:46.683Z,2.61
2018-11-26T23:22:15.507Z,2.58
2018-11-26T23:25:03.762Z,2.60
2018-11-26T23:27:33.320Z,2.53
2018-11-26T23:30:30.487Z,2.50
2018-11-26T23:33:00.139Z,2.44
2018-11-26T23:35:29.080Z,2.42
2018-11-26T23:37:57.910Z,2.41
2018-11-26T23:40:26.876Z,2.33
2018-11-26T23:46:05.328Z,2.43
2018-11-26T23:48:34.203Z,2.46
2018-11-26T23:51:03.082Z,2.40
2018-11-26T23:53:32.020Z,2.40
2018-11-26T23:56:00.770Z,2.40
2018-11-26T23:58:29.485Z,2.43
